createdAt,value
2022-08-20T00:00:46.419Z,100.00
2022-08-20T00:03:27.697Z,100.00
2022-08-20T00:06:03.367Z,100.00
2022-08-20T00:08:31.032Z,100.00
2022-08-20T00:11:01.157Z,100.00
2022-08-20T00:13:37.830Z,100.00
2022-08-20T00:16:06.605Z,100.00
2022-08-20T00:18:36.970Z,100.00
2022-08-20T00:21:06.701Z,100.00
2022-08-20T00:23:33.276Z,100.00
2022-08-20T00:25:59.900Z,100.00
2022-08-20T00:28:26.446Z,100.00
2022-08-20T00:30:53.008Z,100.00
2022-08-20T00:33:22.455Z,100.00
2022-08-20T00:35:53.543Z,100.00
2022-08-20T00:38:20.537Z,100.00
2022-08-20T00:40:51.064Z,100.00
2022-08-20T00:43:36.217Z,100.00
2022-08-20T00:46:06.989Z,100.00
2022-08-20T00:48:36.010Z,100.00
2022-08-20T00:51:10.095Z,100.00
2022-08-20T00:53:37.592Z,100.00
2022-08-20T00:56:06.890Z,100.00
2022-08-20T00:58:34.353Z,100.00
2022-08-20T01:01:01.658Z,100.00
2022-08-20T01:03:28.226Z,100.00
2022-08-20T01:05:54.775Z,100.00
2022-08-20T01:08:24.642Z,100.00
2022-08-20T01:10:53.879Z,100.00
2022-08-20T01:13:22.490Z,100.00
2022-08-20T01:15:51.978Z,100.00
2022-08-20T01:18:21.194Z,100.00
2022-08-20T01:20:54.444Z,100.00
2022-08-20T01:23:32.657Z,100.00
2022-08-20T01:26:10.882Z,100.00
2022-08-20T01:28:45.415Z,100.00
2022-08-20T01:31:15.626Z,100.00
2022-08-20T01:33:44.860Z,100.00
2022-08-20T01:36:14.056Z,100.00
2022-08-20T01:38:40.956Z,100.00
2022-08-20T01:41:29.358Z,100.00
2022-08-20T01:43:58.567Z,100.00
2022-08-20T01:46:33.040Z,100.00
2022-08-20T01:49:21.026Z,100.00
2022-08-20T01:51:52.392Z,100.00
2022-08-20T01:54:19.408Z,100.00
2022-08-20T01:56:59.867Z,100.00
2022-08-20T01:59:26.772Z,100.00
2022-08-20T02:01:55.082Z,100.00
2022-08-20T02:04:21.949Z,100.00
2022-08-20T02:06:56.262Z,100.00
2022-08-20T02:09:30.209Z,100.00
2022-08-20T02:11:57.786Z,100.00
2022-08-20T02:14:25.035Z,100.00
2022-08-20T02:16:54.899Z,100.00
2022-08-20T02:19:34.248Z,100.00
2022-08-20T02:22:04.466Z,100.00
2022-08-20T02:24:31.105Z,100.00
2022-08-20T02:26:57.632Z,100.00
2022-08-20T02:29:24.219Z,100.00
2022-08-20T02:32:25.155Z,100.00
2022-08-20T02:34:37.968Z,100.00
2022-08-20T02:37:06.328Z,100.00
2022-08-20T02:39:34.077Z,100.00
2022-08-20T02:42:02.757Z,100.00
2022-08-20T02:44:31.182Z,100.00
2022-08-20T02:46:58.381Z,100.00
2022-08-20T02:49:24.981Z,100.00
2022-08-20T02:51:51.526Z,100.00
2022-08-20T02:54:18.124Z,100.00
2022-08-20T02:56:44.982Z,100.00
2022-08-20T02:59:13.708Z,100.00
2022-08-20T03:01:46.400Z,100.00
2022-08-20T03:04:12.965Z,100.00
2022-08-20T03:06:39.615Z,100.00
2022-08-20T03:09:07.802Z,100.00
2022-08-20T03:11:34.975Z,100.00
2022-08-20T03:14:02.256Z,100.00
2022-08-20T03:16:28.852Z,100.00
2022-08-20T03:18:55.855Z,100.00
2022-08-20T03:21:22.388Z,100.00
2022-08-20T03:23:49.027Z,100.00
2022-08-20T03:26:16.476Z,100.00
2022-08-20T03:28:43.510Z,100.00
2022-08-20T03:31:10.226Z,100.00
2022-08-20T03:33:39.636Z,100.00
2022-08-20T03:36:28.124Z,100.00
2022-08-20T03:38:57.889Z,100.00
2022-08-20T03:41:25.276Z,100.00
2022-08-20T03:43:52.694Z,100.00
2022-08-20T03:46:23.550Z,100.00
2022-08-20T03:48:56.693Z,100.00
2022-08-20T03:51:29.985Z,100.00
2022-08-20T03:53:57.302Z,100.00
2022-08-20T03:56:24.125Z,100.00
2022-08-20T03:58:50.714Z,100.00
2022-08-20T04:01:44.314Z,100.00
2022-08-20T04:04:04.448Z,100.00
2022-08-20T04:06:30.997Z,100.00
2022-08-20T04:08:57.718Z,100.00
2022-08-20T04:11:24.434Z,100.00
2022-08-20T04:13:51.303Z,100.00
2022-08-20T04:16:18.265Z,100.00
2022-08-20T04:19:01.545Z,100.00
2022-08-20T04:21:33.083Z,100.00
2022-08-20T04:24:00.604Z,100.00
2022-08-20T04:26:27.166Z,100.00
2022-08-20T04:28:55.769Z,100.00
2022-08-20T04:31:25.312Z,100.00
2022-08-20T04:33:52.638Z,100.00
2022-08-20T04:36:19.321Z,100.00
2022-08-20T04:38:48.088Z,100.00
2022-08-20T04:41:23.208Z,100.00
2022-08-20T04:43:51.794Z,100.00
2022-08-20T04:46:19.346Z,100.00
2022-08-20T04:48:50.094Z,100.00
2022-08-20T04:51:17.164Z,100.00
2022-08-20T04:53:51.666Z,100.00
2022-08-20T04:56:23.213Z,100.00
2022-08-20T04:58:51.268Z,100.00
2022-08-20T05:01:18.476Z,100.00
2022-08-20T05:03:47.787Z,100.00
2022-08-20T05:06:16.056Z,100.00
2022-08-20T05:08:43.179Z,100.00
2022-08-20T05:11:34.620Z,100.00
2022-08-20T05:13:57.227Z,100.00
2022-08-20T05:16:24.645Z,100.00
2022-08-20T05:18:52.726Z,100.00
2022-08-20T05:21:20.612Z,100.00
2022-08-20T05:23:47.394Z,100.00
2022-08-20T05:26:15.896Z,100.00
2022-08-20T05:28:53.879Z,100.00
2022-08-20T05:31:32.536Z,100.00
2022-08-20T05:34:10.729Z,100.00
2022-08-20T05:36:49.679Z,100.00
2022-08-20T05:39:18.376Z,100.00
2022-08-20T05:41:45.134Z,100.00
2022-08-20T05:44:14.036Z,100.00
2022-08-20T05:46:42.701Z,100.00
2022-08-20T05:49:16.329Z,100.00
2022-08-20T05:51:43.763Z,100.00
2022-08-20T05:54:11.006Z,100.00
2022-08-20T05:56:39.527Z,100.00
2022-08-20T05:59:07.420Z,100.00
2022-08-20T06:01:36.372Z,100.00
2022-08-20T06:04:22.222Z,100.00
2022-08-20T06:06:51.121Z,100.00
2022-08-20T06:09:27.931Z,100.00
2022-08-20T06:12:03.281Z,100.00
2022-08-20T06:14:29.869Z,100.00
2022-08-20T06:17:02.915Z,100.00
2022-08-20T06:19:32.085Z,100.00
2022-08-20T06:21:59.413Z,100.00
2022-08-20T06:24:26.952Z,100.00
2022-08-20T06:26:57.569Z,100.00
2022-08-20T06:29:24.243Z,100.00
2022-08-20T06:31:50.756Z,100.00
2022-08-20T06:34:18.743Z,100.00
2022-08-20T06:36:48.334Z,100.00
2022-08-20T06:39:15.997Z,100.00
2022-08-20T06:41:42.649Z,100.00
2022-08-20T06:44:10.137Z,100.00
2022-08-20T06:46:37.654Z,100.00
2022-08-20T06:49:08.575Z,100.00
2022-08-20T06:51:37.331Z,100.00
2022-08-20T06:54:05.256Z,100.00
2022-08-20T06:56:33.517Z,100.00
2022-08-20T06:59:00.150Z,100.00
2022-08-20T07:01:26.720Z,100.00
2022-08-20T07:03:55.307Z,100.00
2022-08-20T07:06:25.516Z,100.00
2022-08-20T07:08:53.058Z,100.00
2022-08-20T07:11:26.566Z,100.00
2022-08-20T07:13:56.554Z,100.00
2022-08-20T07:16:23.142Z,100.00
2022-08-20T07:18:49.677Z,100.00
2022-08-20T07:21:17.471Z,100.00
2022-08-20T07:23:44.558Z,100.00
2022-08-20T07:26:11.135Z,100.00
2022-08-20T07:28:37.686Z,100.00
2022-08-20T07:31:22.897Z,100.00
2022-08-20T07:33:50.557Z,100.00
2022-08-20T07:36:17.749Z,100.00
2022-08-20T07:38:47.209Z,100.00
2022-08-20T07:41:17.712Z,100.00
2022-08-20T08:01:06.537Z,100.00
2022-08-20T08:24:21.786Z,100.00
2022-08-20T08:26:50.214Z,100.00
2022-08-20T08:29:17.204Z,100.00
2022-08-20T08:31:43.987Z,100.00
2022-08-20T08:34:10.566Z,100.00
2022-08-20T08:36:39.329Z,100.00
2022-08-20T08:39:05.997Z,100.00
2022-08-20T08:41:40.912Z,100.00
2022-08-20T08:44:12.523Z,100.00
2022-08-20T08:46:43.024Z,100.00
2022-08-20T08:49:12.961Z,100.00
2022-08-20T08:51:46.397Z,100.00
2022-08-20T08:54:22.489Z,100.00
2022-08-20T08:56:50.606Z,100.00
2022-08-20T08:59:18.281Z,100.00
2022-08-20T09:01:54.085Z,100.00
2022-08-20T09:04:28.490Z,100.00
2022-08-20T09:06:55.073Z,100.00
2022-08-20T09:09:25.614Z,100.00
2022-08-20T09:11:55.855Z,100.00
2022-08-20T09:14:24.983Z,100.00
2022-08-20T09:16:52.818Z,100.00
2022-08-20T09:19:20.227Z,100.00
2022-08-20T09:21:48.731Z,100.00
2022-08-20T09:24:15.391Z,100.00
2022-08-20T09:26:42.055Z,100.00
2022-08-20T09:32:54.630Z,100.00
2022-08-20T09:35:31.930Z,100.00
2022-08-20T09:41:44.683Z,100.00
2022-08-20T09:44:11.218Z,100.00
2022-08-20T09:46:37.751Z,100.00
2022-08-20T09:49:04.312Z,100.00
2022-08-20T09:51:33.920Z,100.00
2022-08-20T09:54:05.320Z,100.00
2022-08-20T09:56:34.406Z,100.00
2022-08-20T09:59:02.913Z,100.00
2022-08-20T10:01:29.660Z,100.00
2022-08-20T10:03:56.322Z,100.00
2022-08-20T10:06:22.870Z,100.00
2022-08-20T10:08:49.716Z,100.00
2022-08-20T10:11:18.026Z,100.00
2022-08-20T10:13:45.016Z,100.00
2022-08-20T10:16:11.587Z,100.00
2022-08-20T10:18:38.263Z,100.00
2022-08-20T10:21:10.413Z,100.00
2022-08-20T10:23:36.945Z,100.00
2022-08-20T10:26:03.784Z,100.00
2022-08-20T10:28:30.324Z,100.00
2022-08-20T10:30:56.840Z,100.00
2022-08-20T10:33:23.486Z,100.00
2022-08-20T10:35:50.061Z,100.00
2022-08-20T10:38:17.238Z,100.00
2022-08-20T10:40:49.802Z,100.00
2022-08-20T10:43:19.285Z,100.00
2022-08-20T10:45:45.819Z,100.00
2022-08-20T10:48:12.388Z,100.00
2022-08-20T10:50:38.961Z,100.00
2022-08-20T10:53:05.520Z,100.00
2022-08-20T10:55:32.222Z,100.00
2022-08-20T10:57:58.899Z,100.00
2022-08-20T11:00:25.860Z,100.00
2022-08-20T11:02:52.622Z,100.00
2022-08-20T11:05:19.298Z,76.24
2022-08-20T11:08:08.462Z,62.93
2022-08-20T11:10:34.619Z,62.82
2022-08-20T11:13:02.913Z,60.27
2022-08-20T11:15:29.495Z,60.35
2022-08-20T11:17:56.774Z,64.31
2022-08-20T11:20:27.781Z,57.98
2022-08-20T11:22:54.809Z,60.24
2022-08-20T11:25:21.515Z,62.66
2022-08-20T11:27:50.229Z,63.13
2022-08-20T11:30:43.110Z,65.71
2022-08-20T11:33:09.652Z,67.88
2022-08-20T11:35:48.866Z,75.23
2022-08-20T11:38:16.365Z,92.83
2022-08-20T11:40:42.951Z,100.00
2022-08-20T11:43:17.723Z,100.00
2022-08-20T11:45:50.663Z,100.00
2022-08-20T11:48:18.214Z,100.00
2022-08-20T11:50:45.366Z,96.11
2022-08-20T11:53:11.940Z,93.01
2022-08-20T11:55:38.652Z,70.65
2022-08-20T11:58:05.950Z,56.86
2022-08-20T12:00:34.263Z,49.69
2022-08-20T12:03:02.276Z,50.20
2022-08-20T12:05:30.020Z,49.69
2022-08-20T12:07:57.622Z,45.39
2022-08-20T12:10:26.401Z,37.58
2022-08-20T12:12:53.018Z,36.08
2022-08-20T12:15:20.105Z,33.04
2022-08-20T12:17:46.680Z,33.92
2022-08-20T12:20:14.438Z,32.21
2022-08-20T12:22:41.146Z,31.49
2022-08-20T12:25:08.610Z,31.99
2022-08-20T12:27:36.198Z,32.91
2022-08-20T12:30:06.781Z,34.37
2022-08-20T12:32:34.432Z,34.27
2022-08-20T12:35:01.186Z,36.17
2022-08-20T12:37:30.571Z,33.47
2022-08-20T12:39:58.944Z,32.91
2022-08-20T12:42:26.374Z,31.37
2022-08-20T12:44:52.971Z,30.88
2022-08-20T12:47:22.589Z,29.10
2022-08-20T12:49:52.275Z,26.59
2022-08-20T12:52:20.606Z,28.62
2022-08-20T12:54:47.445Z,27.58
2022-08-20T12:57:24.390Z,27.73
2022-08-20T12:59:50.956Z,27.96
2022-08-20T13:02:20.389Z,27.16
2022-08-20T13:04:47.118Z,28.67
2022-08-20T13:07:14.476Z,27.29
2022-08-20T13:09:42.854Z,27.18
2022-08-20T13:12:10.456Z,25.43
2022-08-20T13:14:38.293Z,24.97
2022-08-20T13:17:05.004Z,25.85
2022-08-20T13:19:35.164Z,26.00
2022-08-20T13:22:02.439Z,27.89
2022-08-20T13:24:29.107Z,31.34
2022-08-20T13:27:04.287Z,34.02
2022-08-20T13:29:30.836Z,35.94
2022-08-20T13:31:57.353Z,37.90
2022-08-20T13:34:23.898Z,40.16
2022-08-20T13:36:50.473Z,41.96
2022-08-20T13:39:17.032Z,44.01
2022-08-20T13:41:44.239Z,43.81
2022-08-20T13:44:10.906Z,45.06
2022-08-20T13:46:37.458Z,46.92
2022-08-20T13:49:04.459Z,48.34
2022-08-20T13:51:30.982Z,52.72
2022-08-20T13:53:57.562Z,50.17
2022-08-20T13:56:24.261Z,51.76
2022-08-20T13:58:50.804Z,51.61
2022-08-20T14:01:19.720Z,52.23
2022-08-20T14:03:47.879Z,48.71
2022-08-20T14:06:15.026Z,48.14
2022-08-20T14:08:41.607Z,51.36
2022-08-20T14:11:08.160Z,51.76
2022-08-20T14:13:40.512Z,51.02
2022-08-20T14:16:25.242Z,51.82
2022-08-20T14:18:56.259Z,50.77
2022-08-20T14:21:22.770Z,52.55
2022-08-20T14:23:49.324Z,51.61
2022-08-20T14:26:15.840Z,50.34
2022-08-20T14:28:42.421Z,51.58
2022-08-20T14:31:08.971Z,53.39
2022-08-20T14:33:36.275Z,52.88
2022-08-20T14:36:03.099Z,53.47
2022-08-20T14:38:29.678Z,52.30
2022-08-20T14:40:56.253Z,51.67
2022-08-20T14:43:22.817Z,53.83
2022-08-20T14:45:49.398Z,53.98
2022-08-20T14:48:16.023Z,56.49
2022-08-20T14:50:43.028Z,56.05
2022-08-20T14:53:09.745Z,55.34
2022-08-20T14:55:37.608Z,52.93
2022-08-20T14:58:08.955Z,53.51
2022-08-20T15:00:35.691Z,53.95
2022-08-20T15:03:02.426Z,54.88
2022-08-20T15:05:29.742Z,53.81
2022-08-20T15:07:57.218Z,53.47
2022-08-20T15:10:31.860Z,54.44
2022-08-20T15:12:59.340Z,53.28
2022-08-20T15:15:26.345Z,51.57
2022-08-20T15:17:55.149Z,49.16
2022-08-20T15:20:24.407Z,47.69
2022-08-20T15:22:51.510Z,48.64
2022-08-20T15:25:22.249Z,50.38
2022-08-20T15:27:49.235Z,50.63
2022-08-20T15:30:19.082Z,52.72
2022-08-20T15:32:46.066Z,53.33
2022-08-20T15:35:13.313Z,52.32
2022-08-20T15:37:43.036Z,53.46
2022-08-20T15:40:11.737Z,53.82
2022-08-20T15:42:39.587Z,53.53
2022-08-20T15:45:07.641Z,54.59
2022-08-20T15:47:49.951Z,53.51
2022-08-20T15:50:33.712Z,55.08
2022-08-20T15:53:10.838Z,55.99
2022-08-20T15:55:41.271Z,57.04
2022-08-20T15:58:15.224Z,58.59
2022-08-20T16:00:54.342Z,59.70
2022-08-20T16:03:39.640Z,58.87
2022-08-20T16:06:21.813Z,60.00
2022-08-20T16:09:07.336Z,60.02
2022-08-20T16:11:53.397Z,57.02
2022-08-20T16:14:22.397Z,56.48
2022-08-20T16:17:01.140Z,57.34
2022-08-20T16:19:33.008Z,56.70
2022-08-20T16:21:59.904Z,58.18
2022-08-20T16:24:26.461Z,59.84
2022-08-20T16:27:01.307Z,59.96
2022-08-20T16:29:33.934Z,59.61
2022-08-20T16:32:04.697Z,59.82
2022-08-20T16:34:38.857Z,60.42
2022-08-20T16:37:29.018Z,62.37
2022-08-20T16:39:58.388Z,61.70
2022-08-20T16:42:26.287Z,64.94
2022-08-20T16:44:54.492Z,64.28
2022-08-20T16:47:30.111Z,67.52
2022-08-20T16:50:02.199Z,68.51
2022-08-20T16:52:28.775Z,70.17
2022-08-20T16:54:55.697Z,71.95
2022-08-20T16:57:22.433Z,74.23
2022-08-20T16:59:58.586Z,73.94
2022-08-20T17:02:26.164Z,76.72
2022-08-20T17:04:59.417Z,79.28
2022-08-20T17:07:29.892Z,79.08
2022-08-20T17:10:20.646Z,81.15
2022-08-20T17:12:52.944Z,82.21
2022-08-20T17:15:23.157Z,81.39
2022-08-20T17:17:49.805Z,81.48
2022-08-20T17:20:20.546Z,85.41
2022-08-20T17:23:09.922Z,87.04
2022-08-20T17:25:38.383Z,88.76
2022-08-20T17:28:19.775Z,90.70
2022-08-20T17:30:47.391Z,91.38
2022-08-20T17:33:26.526Z,95.15
2022-08-20T17:35:59.541Z,96.65
2022-08-20T17:38:37.768Z,100.00
2022-08-20T17:41:13.937Z,100.00
2022-08-20T17:43:44.638Z,100.00
2022-08-20T17:46:17.470Z,100.00
2022-08-20T17:48:46.723Z,100.00
2022-08-20T17:51:22.555Z,100.00
2022-08-20T17:54:00.265Z,100.00
2022-08-20T17:56:31.218Z,100.00
2022-08-20T17:59:05.881Z,100.00
2022-08-20T18:01:33.566Z,100.00
2022-08-20T18:04:00.237Z,100.00
2022-08-20T18:06:34.468Z,100.00
2022-08-20T18:09:17.907Z,100.00
2022-08-20T18:15:27.238Z,100.00
2022-08-20T18:18:15.461Z,100.00
2022-08-20T18:25:13.919Z,100.00
2022-08-20T18:27:44.244Z,100.00
2022-08-20T18:30:17.624Z,100.00
2022-08-20T18:32:46.323Z,100.00
2022-08-20T18:35:19.128Z,100.00
2022-08-20T18:37:45.728Z,100.00
2022-08-20T18:40:30.202Z,100.00
2022-08-20T18:43:00.184Z,100.00
2022-08-20T18:45:35.812Z,100.00
2022-08-20T18:48:03.475Z,100.00
2022-08-20T18:50:38.772Z,100.00
2022-08-20T18:53:20.593Z,100.00
2022-08-20T18:56:00.229Z,100.00
2022-08-20T18:58:52.576Z,100.00
2022-08-20T19:01:19.477Z,100.00
2022-08-20T19:03:49.739Z,100.00
2022-08-20T19:06:25.602Z,100.00
2022-08-20T19:09:00.203Z,100.00
2022-08-20T19:11:55.982Z,100.00
2022-08-20T19:14:40.969Z,100.00
2022-08-20T19:17:12.011Z,100.00
2022-08-20T19:19:38.658Z,100.00
2022-08-20T19:22:05.347Z,100.00
2022-08-20T19:24:34.464Z,100.00
2022-08-20T19:27:07.983Z,100.00
2022-08-20T19:29:42.133Z,100.00
2022-08-20T19:32:18.176Z,100.00
2022-08-20T19:34:52.255Z,100.00
2022-08-20T19:37:35.348Z,100.00
2022-08-20T19:40:08.788Z,100.00
2022-08-20T19:42:42.848Z,100.00
2022-08-20T19:45:26.703Z,100.00
2022-08-20T19:47:57.122Z,100.00
2022-08-20T19:50:33.669Z,100.00
2022-08-20T19:53:30.064Z,100.00
2022-08-20T19:56:04.817Z,100.00
2022-08-20T19:58:32.449Z,100.00
2022-08-20T20:01:00.691Z,100.00
2022-08-20T20:03:30.062Z,100.00
2022-08-20T20:06:16.166Z,100.00
2022-08-20T20:08:58.360Z,100.00
2022-08-20T20:11:30.740Z,100.00
2022-08-20T20:14:06.570Z,100.00
2022-08-20T20:16:34.148Z,100.00
2022-08-20T20:19:24.758Z,100.00
2022-08-20T20:21:50.707Z,100.00
2022-08-20T20:24:29.627Z,100.00
2022-08-20T20:26:58.784Z,100.00
2022-08-20T20:29:28.108Z,100.00
2022-08-20T20:31:57.284Z,100.00
2022-08-20T20:34:55.696Z,100.00
2022-08-20T20:37:50.747Z,100.00
2022-08-20T20:40:35.898Z,100.00
2022-08-20T20:43:08.871Z,100.00
2022-08-20T20:45:40.189Z,100.00
2022-08-20T20:48:23.831Z,100.00
2022-08-20T20:50:51.720Z,100.00
2022-08-20T20:53:51.308Z,100.00
2022-08-20T20:56:29.759Z,100.00
2022-08-20T20:58:56.435Z,100.00
2022-08-20T21:01:27.344Z,100.00
2022-08-20T21:04:09.929Z,100.00
2022-08-20T21:06:36.654Z,100.00
2022-08-20T21:09:03.234Z,100.00
2022-08-20T21:11:29.819Z,100.00
2022-08-20T21:13:56.585Z,100.00
2022-08-20T21:16:23.143Z,100.00
2022-08-20T21:18:49.682Z,100.00
2022-08-20T21:21:16.256Z,100.00
2022-08-20T21:23:42.822Z,100.00
2022-08-20T21:26:09.771Z,100.00
2022-08-20T21:28:36.331Z,100.00
2022-08-20T21:31:03.095Z,100.00
2022-08-20T21:33:29.664Z,100.00
2022-08-20T21:35:56.890Z,100.00
2022-08-20T21:38:24.045Z,100.00
2022-08-20T21:40:50.729Z,100.00
2022-08-20T21:43:18.814Z,100.00
2022-08-20T21:45:45.573Z,100.00
2022-08-20T21:48:16.224Z,100.00
2022-08-20T21:50:43.582Z,100.00
2022-08-20T21:53:11.328Z,100.00
2022-08-20T21:55:39.894Z,100.00
2022-08-20T21:58:07.078Z,100.00
2022-08-20T22:00:56.665Z,100.00
2022-08-20T22:03:27.675Z,100.00
2022-08-20T22:05:55.205Z,100.00
2022-08-20T22:08:28.504Z,100.00
2022-08-20T22:10:57.069Z,100.00
2022-08-20T22:13:24.986Z,100.00
2022-08-20T22:15:51.525Z,100.00
2022-08-20T22:18:18.140Z,100.00
2022-08-20T22:20:44.824Z,100.00
2022-08-20T22:23:12.016Z,100.00
2022-08-20T22:25:38.761Z,100.00
2022-08-20T22:28:05.322Z,100.00
2022-08-20T22:30:31.936Z,100.00
2022-08-20T22:33:07.876Z,100.00
2022-08-20T22:35:34.725Z,100.00
2022-08-20T22:38:01.386Z,100.00
2022-08-20T22:40:27.980Z,100.00
2022-08-20T22:42:54.656Z,100.00
2022-08-20T22:45:21.279Z,100.00
2022-08-20T22:47:47.903Z,100.00
2022-08-20T22:50:14.699Z,100.00
2022-08-20T22:52:43.408Z,100.00
2022-08-20T22:55:10.343Z,100.00
2022-08-20T22:57:37.661Z,100.00
2022-08-20T23:00:10.529Z,100.00
2022-08-20T23:02:37.174Z,100.00
2022-08-20T23:05:04.334Z,100.00
2022-08-20T23:07:31.115Z,100.00
2022-08-20T23:09:57.643Z,100.00
2022-08-20T23:12:24.225Z,100.00
2022-08-20T23:14:52.555Z,100.00
2022-08-20T23:17:19.562Z,100.00
2022-08-20T23:19:47.285Z,100.00
2022-08-20T23:22:14.218Z,100.00
2022-08-20T23:24:40.806Z,100.00
2022-08-20T23:27:08.606Z,100.00
2022-08-20T23:29:35.684Z,100.00
2022-08-20T23:32:02.383Z,100.00
2022-08-20T23:34:29.056Z,100.00
2022-08-20T23:36:56.705Z,100.00
2022-08-20T23:39:24.242Z,100.00
2022-08-20T23:41:50.953Z,100.00
2022-08-20T23:44:25.089Z,100.00
2022-08-20T23:46:56.637Z,100.00
2022-08-20T23:49:23.304Z,100.00
2022-08-20T23:51:49.853Z,100.00
2022-08-20T23:54:16.394Z,100.00
2022-08-20T23:56:43.002Z,100.00
2022-08-20T23:59:09.626Z,100.00
